createdAt,value
2022-10-24T00:00:43.700Z,16.40
2022-10-24T00:03:12.298Z,16.40
2022-10-24T00:05:44.456Z,16.40
2022-10-24T00:08:13.111Z,16.40
2022-10-24T00:10:43.657Z,16.40
2022-10-24T00:13:11.803Z,16.40
2022-10-24T00:15:40.424Z,16.40
2022-10-24T00:18:08.237Z,16.40
2022-10-24T00:20:37.059Z,16.40
2022-10-24T00:23:06.809Z,16.40
2022-10-24T00:25:34.691Z,16.50
2022-10-24T00:28:02.718Z,16.50
2022-10-24T00:30:30.809Z,16.50
2022-10-24T00:32:58.672Z,16.50
2022-10-24T00:35:26.601Z,16.50
2022-10-24T00:37:54.487Z,16.50
2022-10-24T00:40:24.257Z,16.50
2022-10-24T00:42:52.109Z,16.50
2022-10-24T00:45:45.996Z,16.50
2022-10-24T00:48:24.456Z,16.50
2022-10-24T00:50:56.672Z,16.50
2022-10-24T00:53:26.382Z,16.50
2022-10-24T00:55:58.370Z,16.50
2022-10-24T00:58:29.005Z,16.50
2022-10-24T01:00:57.798Z,16.50
2022-10-24T01:03:26.016Z,16.50
2022-10-24T01:06:14.353Z,16.60
2022-10-24T01:08:48.593Z,16.60
2022-10-24T01:11:32.015Z,16.60
2022-10-24T01:14:07.175Z,16.60
2022-10-24T01:16:45.158Z,16.60
2022-10-24T01:19:36.286Z,16.60
2022-10-24T01:22:06.932Z,16.60
2022-10-24T01:24:50.575Z,16.70
2022-10-24T01:27:39.071Z,16.70
2022-10-24T01:30:10.229Z,16.70
2022-10-24T01:32:49.387Z,16.70
2022-10-24T01:38:07.218Z,16.70
2022-10-24T01:40:39.142Z,16.80
2022-10-24T01:43:11.646Z,16.70
2022-10-24T01:45:45.894Z,16.80
2022-10-24T01:48:17.187Z,16.70
2022-10-24T01:50:48.590Z,16.70
2022-10-24T01:53:18.193Z,16.80
2022-10-24T01:55:50.453Z,16.70
2022-10-24T01:58:19.641Z,16.80
2022-10-24T02:00:50.894Z,16.70
2022-10-24T02:03:25.171Z,16.70
2022-10-24T02:05:56.781Z,16.70
2022-10-24T02:08:29.986Z,16.70
2022-10-24T02:11:01.346Z,16.70
2022-10-24T02:13:35.383Z,16.70
2022-10-24T02:16:06.006Z,16.70
2022-10-24T02:18:35.187Z,16.70
2022-10-24T02:21:14.363Z,16.70
2022-10-24T02:23:48.511Z,16.70
2022-10-24T02:26:25.922Z,16.70
2022-10-24T02:28:58.596Z,16.60
2022-10-24T02:31:31.865Z,16.70
2022-10-24T02:34:01.604Z,16.70
2022-10-24T02:36:31.374Z,16.70
2022-10-24T02:39:01.029Z,16.70
2022-10-24T02:41:33.112Z,16.70
2022-10-24T02:44:03.269Z,16.70
2022-10-24T02:46:34.373Z,16.80
2022-10-24T02:49:05.128Z,16.70
2022-10-24T02:51:36.137Z,16.80
2022-10-24T02:54:04.669Z,16.80
2022-10-24T02:56:32.696Z,16.80
2022-10-24T02:59:00.593Z,16.80
2022-10-24T03:01:28.580Z,16.70
2022-10-24T03:03:57.872Z,16.70
2022-10-24T03:06:25.856Z,16.70
2022-10-24T03:08:53.667Z,16.80
2022-10-24T03:11:21.712Z,16.80
2022-10-24T03:13:49.558Z,16.80
2022-10-24T03:16:17.418Z,16.80
2022-10-24T03:18:45.258Z,16.80
2022-10-24T03:21:14.488Z,16.80
2022-10-24T03:23:42.451Z,16.80
2022-10-24T03:26:10.373Z,16.80
2022-10-24T03:28:39.037Z,16.80
2022-10-24T03:31:07.407Z,16.80
2022-10-24T03:33:35.249Z,16.80
2022-10-24T03:36:03.349Z,16.70
2022-10-24T03:38:32.566Z,16.80
2022-10-24T03:41:00.476Z,16.70
2022-10-24T03:43:28.333Z,16.70
2022-10-24T03:45:56.174Z,16.70
2022-10-24T03:48:24.070Z,16.70
2022-10-24T03:50:52.024Z,16.70
2022-10-24T03:53:20.170Z,16.70
2022-10-24T03:55:49.396Z,16.70
2022-10-24T03:58:17.270Z,16.70
2022-10-24T04:00:45.218Z,16.70
2022-10-24T04:03:13.082Z,16.70
2022-10-24T04:05:41.143Z,16.70
2022-10-24T04:08:08.995Z,16.70
2022-10-24T04:10:37.402Z,16.60
2022-10-24T04:13:06.657Z,16.60
2022-10-24T04:15:34.690Z,16.60
2022-10-24T04:18:02.512Z,16.60
2022-10-24T04:20:30.349Z,16.60
2022-10-24T04:23:00.053Z,16.60
2022-10-24T04:25:30.209Z,16.60
2022-10-24T04:27:58.094Z,16.60
2022-10-24T04:30:28.889Z,16.60
2022-10-24T04:32:57.461Z,16.60
2022-10-24T04:35:26.736Z,16.60
2022-10-24T04:37:54.801Z,16.60
2022-10-24T04:40:22.882Z,16.60
2022-10-24T04:42:50.817Z,16.60
2022-10-24T04:45:18.691Z,16.50
2022-10-24T04:47:47.979Z,16.60
2022-10-24T04:50:16.023Z,16.60
2022-10-24T04:52:43.811Z,16.50
2022-10-24T04:55:11.656Z,16.60
2022-10-24T04:57:39.716Z,16.50
2022-10-24T05:00:08.960Z,16.50
2022-10-24T05:02:36.928Z,16.50
2022-10-24T05:05:06.752Z,16.50
2022-10-24T05:07:34.628Z,16.50
2022-10-24T05:10:02.426Z,16.40
2022-10-24T05:12:30.352Z,16.50
2022-10-24T05:14:58.355Z,16.50
2022-10-24T05:17:26.241Z,16.40
2022-10-24T05:19:54.110Z,16.40
2022-10-24T05:22:23.918Z,16.40
2022-10-24T05:24:51.939Z,16.40
2022-10-24T05:27:24.509Z,16.40
2022-10-24T05:29:52.451Z,16.40
2022-10-24T05:32:22.030Z,16.40
2022-10-24T05:34:50.041Z,16.30
2022-10-24T05:37:18.071Z,16.30
2022-10-24T05:39:47.408Z,16.30
2022-10-24T05:42:15.281Z,16.30
2022-10-24T05:44:43.156Z,16.30
2022-10-24T05:47:11.109Z,16.30
2022-10-24T05:49:39.009Z,16.30
2022-10-24T05:52:06.919Z,16.30
2022-10-24T05:54:48.339Z,16.30
2022-10-24T05:57:24.279Z,16.30
2022-10-24T05:59:52.294Z,16.30
2022-10-24T06:02:21.947Z,16.20
2022-10-24T06:04:50.634Z,16.30
2022-10-24T06:07:18.903Z,16.30
2022-10-24T06:09:47.067Z,16.30
2022-10-24T06:12:14.976Z,16.30
2022-10-24T06:14:44.783Z,16.30
2022-10-24T06:17:12.813Z,16.30
2022-10-24T06:19:40.989Z,16.20
2022-10-24T06:22:09.730Z,16.20
2022-10-24T06:24:39.023Z,16.20
2022-10-24T06:27:07.554Z,16.20
2022-10-24T06:29:35.848Z,16.20
2022-10-24T06:32:07.060Z,16.20
2022-10-24T06:34:35.512Z,16.20
2022-10-24T06:37:03.675Z,16.20
2022-10-24T06:39:31.738Z,16.30
2022-10-24T06:41:59.606Z,16.30
2022-10-24T06:44:27.629Z,16.20
2022-10-24T06:46:55.453Z,16.20
2022-10-24T06:49:24.617Z,16.20
2022-10-24T06:51:52.631Z,16.20
2022-10-24T06:54:20.498Z,16.30
2022-10-24T06:56:48.368Z,16.30
2022-10-24T06:59:18.106Z,16.30
2022-10-24T07:01:46.764Z,16.30
2022-10-24T07:04:14.708Z,16.30
2022-10-24T07:06:44.233Z,16.20
2022-10-24T07:09:15.344Z,16.30
2022-10-24T07:11:44.170Z,16.30
2022-10-24T07:14:12.204Z,16.30
2022-10-24T07:16:40.409Z,16.30
2022-10-24T07:19:08.491Z,16.30
2022-10-24T07:21:36.372Z,16.30
2022-10-24T07:24:06.903Z,16.40
2022-10-24T07:26:34.719Z,16.40
2022-10-24T07:29:03.401Z,16.40
2022-10-24T07:31:33.294Z,16.40
2022-10-24T07:34:02.232Z,16.50
2022-10-24T07:36:31.466Z,16.50
2022-10-24T07:39:00.691Z,16.50
2022-10-24T07:41:32.478Z,16.60
2022-10-24T07:44:02.109Z,16.60
2022-10-24T07:46:30.691Z,16.70
2022-10-24T07:48:58.822Z,16.70
2022-10-24T07:51:28.417Z,16.80
2022-10-24T07:53:57.516Z,16.80
2022-10-24T07:56:25.358Z,16.80
2022-10-24T07:58:56.037Z,16.80
2022-10-24T08:01:26.268Z,16.90
2022-10-24T08:03:54.371Z,16.80
2022-10-24T08:06:24.431Z,16.90
2022-10-24T08:08:52.380Z,16.90
2022-10-24T08:11:22.269Z,16.90
2022-10-24T08:13:50.977Z,17.00
2022-10-24T08:16:22.883Z,17.00
2022-10-24T08:18:52.399Z,17.00
2022-10-24T08:21:21.960Z,17.20
2022-10-24T08:23:52.424Z,17.30
2022-10-24T08:26:23.250Z,17.40
2022-10-24T08:28:51.899Z,17.40
2022-10-24T08:31:22.468Z,17.40
2022-10-24T08:33:53.061Z,17.40
2022-10-24T08:36:23.799Z,17.40
2022-10-24T08:38:51.699Z,17.40
2022-10-24T08:41:27.005Z,17.40
2022-10-24T08:43:55.816Z,17.50
2022-10-24T08:46:39.936Z,17.40
2022-10-24T08:49:18.492Z,17.50
2022-10-24T08:51:49.765Z,17.40
2022-10-24T08:54:23.936Z,17.40
2022-10-24T08:56:55.713Z,17.40
2022-10-24T08:59:23.891Z,17.50
2022-10-24T09:02:00.588Z,17.50
2022-10-24T09:04:37.575Z,17.50
2022-10-24T09:07:05.706Z,17.50
2022-10-24T09:09:40.397Z,17.50
2022-10-24T09:12:12.567Z,17.50
2022-10-24T09:14:43.208Z,17.50
2022-10-24T09:17:20.325Z,17.50
2022-10-24T09:19:52.992Z,17.50
2022-10-24T09:22:21.805Z,17.60
2022-10-24T09:24:53.703Z,17.60
2022-10-24T09:27:26.081Z,17.60
2022-10-24T09:29:54.529Z,17.60
2022-10-24T09:32:27.650Z,17.60
2022-10-24T09:34:56.074Z,17.60
2022-10-24T09:37:41.356Z,17.60
2022-10-24T09:40:22.456Z,17.60
2022-10-24T09:42:55.421Z,17.60
2022-10-24T09:45:40.268Z,17.60
2022-10-24T09:48:20.758Z,17.60
2022-10-24T09:50:51.104Z,17.60
2022-10-24T09:53:31.120Z,17.60
2022-10-24T09:56:01.037Z,17.60
2022-10-24T09:58:32.696Z,17.60
2022-10-24T10:01:03.896Z,17.60
2022-10-24T10:03:34.285Z,17.60
2022-10-24T10:06:06.091Z,17.60
2022-10-24T10:08:36.227Z,17.60
2022-10-24T10:11:07.308Z,17.60
2022-10-24T10:13:45.256Z,17.60
2022-10-24T10:16:23.741Z,17.60
2022-10-24T10:19:02.002Z,17.60
2022-10-24T10:21:54.431Z,17.60
2022-10-24T10:24:27.389Z,17.70
2022-10-24T10:26:55.341Z,17.70
2022-10-24T10:29:24.571Z,17.70
2022-10-24T10:31:59.548Z,17.70
2022-10-24T10:34:35.703Z,17.70
2022-10-24T10:37:27.717Z,17.70
2022-10-24T10:40:08.253Z,17.70
2022-10-24T10:42:44.464Z,17.70
2022-10-24T10:45:21.276Z,17.70
2022-10-24T10:48:00.816Z,17.70
2022-10-24T10:50:41.068Z,17.80
2022-10-24T10:53:27.215Z,17.80
2022-10-24T10:56:00.403Z,17.80
2022-10-24T10:58:39.438Z,17.80
2022-10-24T11:01:15.971Z,17.80
2022-10-24T11:03:48.738Z,17.80
2022-10-24T11:06:33.102Z,17.90
2022-10-24T11:09:25.077Z,18.00
2022-10-24T11:11:58.811Z,18.10
2022-10-24T11:14:30.889Z,18.10
2022-10-24T11:17:03.895Z,18.20
2022-10-24T11:19:40.774Z,18.20
2022-10-24T11:22:16.788Z,18.20
2022-10-24T11:24:47.495Z,18.20
2022-10-24T11:27:22.462Z,18.20
2022-10-24T11:29:54.861Z,18.20
2022-10-24T11:32:28.324Z,18.20
2022-10-24T11:35:02.482Z,18.20
2022-10-24T11:37:35.187Z,18.30
2022-10-24T11:40:11.635Z,18.30
2022-10-24T11:42:48.766Z,18.30
2022-10-24T11:45:18.860Z,18.30
2022-10-24T11:47:57.955Z,18.20
2022-10-24T11:50:29.763Z,18.20
2022-10-24T11:53:05.916Z,18.20
2022-10-24T11:55:39.065Z,18.20
2022-10-24T11:58:13.684Z,18.10
2022-10-24T12:01:11.785Z,18.20
2022-10-24T12:04:08.157Z,18.10
2022-10-24T12:06:59.679Z,18.10
2022-10-24T12:09:49.858Z,18.10
2022-10-24T12:12:33.110Z,18.10
2022-10-24T12:15:18.094Z,18.10
2022-10-24T12:18:05.440Z,18.10
2022-10-24T12:20:34.023Z,18.10
2022-10-24T12:23:03.665Z,18.10
2022-10-24T12:25:35.379Z,18.10
2022-10-24T12:28:05.623Z,18.00
2022-10-24T12:30:35.998Z,18.00
2022-10-24T12:33:12.912Z,18.00
2022-10-24T12:35:59.027Z,17.90
2022-10-24T12:39:00.586Z,17.90
2022-10-24T12:41:30.777Z,18.00
2022-10-24T12:44:32.001Z,18.20
2022-10-24T12:47:02.591Z,18.30
2022-10-24T12:49:31.701Z,18.30
2022-10-24T12:52:00.502Z,18.20
2022-10-24T12:54:41.992Z,18.20
2022-10-24T12:57:24.331Z,18.20
2022-10-24T12:59:54.825Z,18.30
2022-10-24T13:02:41.813Z,18.20
2022-10-24T13:05:33.510Z,18.20
2022-10-24T13:08:13.616Z,18.20
2022-10-24T13:10:51.794Z,18.20
2022-10-24T13:13:38.727Z,18.20
2022-10-24T13:16:16.719Z,18.20
2022-10-24T13:18:57.632Z,18.10
2022-10-24T13:21:33.015Z,18.20
2022-10-24T13:24:22.771Z,18.20
2022-10-24T13:27:12.900Z,18.20
2022-10-24T13:30:01.577Z,18.20
2022-10-24T13:32:36.371Z,18.20
2022-10-24T13:35:07.367Z,18.20
2022-10-24T13:37:41.603Z,18.20
2022-10-24T13:40:14.815Z,18.20
2022-10-24T13:42:51.626Z,18.20
2022-10-24T13:45:25.909Z,18.20
2022-10-24T13:47:59.273Z,18.20
2022-10-24T13:50:31.297Z,18.20
2022-10-24T13:53:02.986Z,18.20
2022-10-24T13:55:34.740Z,18.20
2022-10-24T13:58:11.041Z,18.20
2022-10-24T14:00:42.177Z,18.10
2022-10-24T14:03:16.841Z,18.20
2022-10-24T14:05:50.012Z,18.10
2022-10-24T14:08:25.023Z,18.10
2022-10-24T14:10:54.590Z,18.10
2022-10-24T14:13:24.795Z,18.10
2022-10-24T14:15:56.315Z,18.20
2022-10-24T14:18:24.287Z,18.20
2022-10-24T14:20:55.944Z,18.20
2022-10-24T14:23:26.687Z,18.20
2022-10-24T14:25:57.904Z,18.20
2022-10-24T14:28:28.961Z,18.30
2022-10-24T14:30:58.375Z,18.60
2022-10-24T14:33:28.416Z,18.90
2022-10-24T14:36:03.640Z,19.00
2022-10-24T14:38:31.901Z,19.10
2022-10-24T14:41:09.445Z,19.50
2022-10-24T14:43:41.593Z,20.10
2022-10-24T14:46:35.652Z,20.30
2022-10-24T14:49:21.739Z,20.10
2022-10-24T14:54:28.222Z,19.70
2022-10-24T14:56:56.154Z,19.60
2022-10-24T14:59:28.187Z,19.40
2022-10-24T15:01:57.973Z,19.30
2022-10-24T15:04:37.730Z,19.20
2022-10-24T15:07:20.834Z,19.00
2022-10-24T15:10:00.910Z,18.90
2022-10-24T15:12:34.384Z,18.80
2022-10-24T15:15:23.227Z,18.80
2022-10-24T15:17:52.439Z,18.70
2022-10-24T15:20:23.963Z,18.60
2022-10-24T15:22:57.200Z,18.60
2022-10-24T15:25:31.032Z,18.50
2022-10-24T15:28:00.259Z,18.50
2022-10-24T15:30:30.899Z,18.50
2022-10-24T15:33:00.849Z,18.50
2022-10-24T15:35:29.739Z,18.60
2022-10-24T15:38:00.738Z,18.70
2022-10-24T15:40:30.982Z,18.70
2022-10-24T15:42:58.919Z,18.60
2022-10-24T15:45:27.106Z,18.70
2022-10-24T15:47:54.985Z,18.60
2022-10-24T15:50:24.700Z,18.50
2022-10-24T15:52:55.307Z,18.40
2022-10-24T15:55:26.912Z,18.40
2022-10-24T15:57:56.977Z,18.30
2022-10-24T16:00:25.896Z,18.30
2022-10-24T16:02:57.130Z,18.30
2022-10-24T16:05:28.583Z,18.30
2022-10-24T16:07:56.619Z,18.30
2022-10-24T16:10:25.834Z,18.30
2022-10-24T16:12:53.648Z,18.30
2022-10-24T16:15:24.819Z,18.30
2022-10-24T16:17:52.850Z,18.20
2022-10-24T16:20:21.011Z,18.10
2022-10-24T16:22:49.040Z,18.10
2022-10-24T16:25:18.621Z,18.10
2022-10-24T16:27:48.873Z,18.10
2022-10-24T16:30:18.205Z,18.00
2022-10-24T16:32:46.550Z,18.10
2022-10-24T16:35:19.003Z,18.00
2022-10-24T16:37:47.210Z,18.00
2022-10-24T16:40:15.100Z,17.90
2022-10-24T16:42:43.173Z,17.90
2022-10-24T16:45:12.898Z,17.90
2022-10-24T16:47:40.862Z,17.80
2022-10-24T16:50:12.911Z,17.80
2022-10-24T16:52:40.744Z,17.80
2022-10-24T16:55:10.587Z,17.80
2022-10-24T16:57:38.438Z,17.80
2022-10-24T17:00:07.182Z,17.80
2022-10-24T17:02:36.493Z,17.80
2022-10-24T17:05:04.487Z,17.80
2022-10-24T17:07:32.379Z,17.80
2022-10-24T17:10:02.199Z,17.80
2022-10-24T17:12:30.355Z,17.70
2022-10-24T17:14:58.383Z,17.70
2022-10-24T17:17:26.262Z,17.70
2022-10-24T17:19:55.459Z,17.70
2022-10-24T17:22:23.655Z,17.80
2022-10-24T17:24:51.827Z,17.70
2022-10-24T17:27:19.918Z,17.70
2022-10-24T17:29:48.690Z,17.70
2022-10-24T17:32:17.118Z,17.70
2022-10-24T17:34:49.957Z,17.60
2022-10-24T17:37:25.543Z,17.60
2022-10-24T17:40:00.363Z,17.60
2022-10-24T17:42:28.513Z,17.50
2022-10-24T17:44:56.605Z,17.50
2022-10-24T17:47:24.680Z,17.50
2022-10-24T17:49:52.776Z,17.50
2022-10-24T17:52:24.939Z,17.50
2022-10-24T17:54:53.052Z,17.50
2022-10-24T17:57:20.903Z,17.50
2022-10-24T17:59:48.759Z,17.50
2022-10-24T18:02:16.730Z,17.50
2022-10-24T18:04:45.383Z,17.50
2022-10-24T18:07:13.954Z,17.50
2022-10-24T18:09:43.227Z,17.50
2022-10-24T18:12:11.083Z,17.40
2022-10-24T18:14:38.978Z,17.40
2022-10-24T18:17:06.914Z,17.40
2022-10-24T18:19:34.816Z,17.40
2022-10-24T18:22:02.862Z,17.50
2022-10-24T18:24:30.758Z,17.60
2022-10-24T18:26:59.924Z,17.60
2022-10-24T18:29:27.957Z,17.60
2022-10-24T18:31:56.988Z,17.70
2022-10-24T18:34:25.202Z,17.60
2022-10-24T18:36:53.318Z,17.50
2022-10-24T18:39:21.228Z,17.50
2022-10-24T18:44:29.634Z,17.50
2022-10-24T18:47:06.620Z,17.50
2022-10-24T18:49:36.363Z,17.40
2022-10-24T18:52:17.881Z,17.40
2022-10-24T18:54:58.323Z,17.30
2022-10-24T18:57:28.327Z,17.20
2022-10-24T18:59:58.335Z,17.10
2022-10-24T19:02:32.531Z,17.20
2022-10-24T19:05:13.197Z,17.20
2022-10-24T19:07:41.335Z,17.30
2022-10-24T19:10:16.324Z,17.30
2022-10-24T19:12:44.838Z,17.40
2022-10-24T19:15:15.570Z,17.40
2022-10-24T19:17:43.846Z,17.50
2022-10-24T19:20:16.847Z,17.50
2022-10-24T19:22:45.188Z,17.40
2022-10-24T19:25:14.069Z,17.30
2022-10-24T19:27:42.375Z,17.30
2022-10-24T19:30:12.322Z,17.20
2022-10-24T19:32:41.555Z,17.30
2022-10-24T19:35:09.617Z,17.20
2022-10-24T19:37:38.032Z,17.10
2022-10-24T19:40:06.981Z,17.00
2022-10-24T19:42:35.518Z,17.00
2022-10-24T19:45:05.135Z,16.90
2022-10-24T19:47:33.036Z,16.90
2022-10-24T19:50:02.235Z,16.90
2022-10-24T19:52:30.120Z,16.90
2022-10-24T19:54:57.967Z,16.90
2022-10-24T19:57:25.879Z,16.90
2022-10-24T19:59:53.791Z,16.80
2022-10-24T20:02:22.080Z,16.80
2022-10-24T20:04:49.945Z,16.80
2022-10-24T20:07:21.855Z,16.80
2022-10-24T20:09:50.837Z,16.70
2022-10-24T20:12:18.639Z,16.70
2022-10-24T20:14:46.510Z,16.60
2022-10-24T20:17:14.476Z,16.70
2022-10-24T20:19:42.340Z,16.70
2022-10-24T20:22:10.340Z,16.70
2022-10-24T20:24:39.554Z,16.70
2022-10-24T20:29:40.239Z,16.50
2022-10-24T20:32:08.248Z,16.50
2022-10-24T20:34:36.100Z,16.50
2022-10-24T20:37:03.985Z,16.50
2022-10-24T20:39:31.880Z,16.50
2022-10-24T20:42:01.063Z,16.40
2022-10-24T20:44:28.919Z,16.40
2022-10-24T20:46:58.903Z,16.40
2022-10-24T20:49:27.163Z,16.40
2022-10-24T20:51:55.030Z,16.40
2022-10-24T20:54:22.897Z,16.40
2022-10-24T20:56:50.742Z,16.40
2022-10-24T20:59:19.937Z,16.40
2022-10-24T21:01:47.860Z,16.40
2022-10-24T21:04:18.519Z,16.40
2022-10-24T21:06:48.835Z,16.30
2022-10-24T21:09:16.673Z,16.30
2022-10-24T21:11:44.527Z,16.30
2022-10-24T21:14:14.856Z,16.30
2022-10-24T21:16:44.061Z,16.20
2022-10-24T21:19:11.890Z,16.30
2022-10-24T21:21:40.332Z,16.30
2022-10-24T21:24:08.830Z,16.30
2022-10-24T21:26:38.337Z,16.30
2022-10-24T21:29:09.146Z,16.40
2022-10-24T21:31:56.384Z,16.40
2022-10-24T21:34:25.856Z,16.40
2022-10-24T21:36:55.622Z,16.50
2022-10-24T21:39:23.470Z,16.50
2022-10-24T21:41:51.326Z,16.60
2022-10-24T21:44:19.208Z,16.50
2022-10-24T21:46:47.040Z,16.50
2022-10-24T21:49:16.458Z,16.50
2022-10-24T21:51:46.421Z,16.40
2022-10-24T21:54:19.090Z,16.40
2022-10-24T21:56:47.131Z,16.30
2022-10-24T21:59:17.503Z,16.30
2022-10-24T22:01:47.569Z,16.20
2022-10-24T22:04:17.498Z,16.20
2022-10-24T22:06:45.851Z,16.20
2022-10-24T22:09:15.848Z,16.20
2022-10-24T22:11:44.395Z,16.10
2022-10-24T22:14:15.287Z,16.10
2022-10-24T22:16:44.219Z,16.10
2022-10-24T22:19:13.508Z,16.00
2022-10-24T22:21:44.503Z,16.00
2022-10-24T22:24:14.116Z,16.00
2022-10-24T22:26:42.977Z,16.00
2022-10-24T22:29:13.942Z,15.90
2022-10-24T22:31:42.310Z,15.90
2022-10-24T22:34:16.018Z,15.80
2022-10-24T22:36:55.106Z,15.80
2022-10-24T22:39:25.242Z,15.70
2022-10-24T22:41:53.874Z,15.70
2022-10-24T22:44:22.718Z,15.70
2022-10-24T22:47:03.937Z,15.60
2022-10-24T22:49:46.954Z,15.60
2022-10-24T22:52:16.702Z,15.60
2022-10-24T22:54:45.265Z,15.60
2022-10-24T22:57:13.768Z,15.50
2022-10-24T22:59:42.126Z,15.50
2022-10-24T23:02:23.862Z,15.60
2022-10-24T23:05:01.304Z,15.60
2022-10-24T23:07:37.459Z,15.70
2022-10-24T23:10:07.089Z,15.70
2022-10-24T23:12:35.550Z,15.70
2022-10-24T23:15:03.938Z,15.60
2022-10-24T23:17:32.720Z,15.60
2022-10-24T23:20:01.480Z,15.60
2022-10-24T23:22:32.278Z,15.60
2022-10-24T23:25:02.281Z,15.60
2022-10-24T23:27:39.208Z,15.60
2022-10-24T23:30:15.863Z,15.60
2022-10-24T23:32:44.842Z,15.50
2022-10-24T23:35:15.356Z,15.50
2022-10-24T23:37:47.066Z,15.50
2022-10-24T23:40:25.697Z,15.50
2022-10-24T23:42:54.183Z,15.50
2022-10-24T23:45:24.425Z,15.40
2022-10-24T23:48:14.020Z,15.40
2022-10-24T23:50:48.179Z,15.30
2022-10-24T23:53:25.940Z,15.30
2022-10-24T23:55:54.555Z,15.30
2022-10-24T23:58:22.562Z,15.30
